createdAt,value
2023-03-29T00:00:19.484Z,0.0
2023-03-29T00:05:16.387Z,0.0
2023-03-29T00:10:16.626Z,0.0
2023-03-29T00:15:19.494Z,0.0
2023-03-29T00:20:19.545Z,0.0
2023-03-29T00:25:16.612Z,0.0
2023-03-29T00:30:16.488Z,0.0
2023-03-29T00:35:19.523Z,0.0
2023-03-29T00:40:19.505Z,0.0
2023-03-29T00:45:19.525Z,0.0
2023-03-29T00:50:19.673Z,0.0
2023-03-29T00:55:19.492Z,0.0
2023-03-29T01:00:16.324Z,0.0
2023-03-29T01:05:19.528Z,0.0
2023-03-29T01:10:19.525Z,0.0
2023-03-29T01:15:16.547Z,0.0
2023-03-29T01:20:19.573Z,0.0
2023-03-29T01:25:19.481Z,0.0
2023-03-29T01:30:19.627Z,0.0
2023-03-29T01:35:19.550Z,0.0
2023-03-29T01:40:19.478Z,0.0
2023-03-29T01:45:16.634Z,0.0
2023-03-29T01:50:19.508Z,0.0
2023-03-29T01:55:16.567Z,0.0
2023-03-29T02:00:19.587Z,0.0
2023-03-29T02:05:19.501Z,0.0
2023-03-29T02:10:19.533Z,0.0
2023-03-29T02:15:16.579Z,0.0
2023-03-29T02:20:19.583Z,0.0
2023-03-29T02:25:16.593Z,0.0
2023-03-29T02:30:19.595Z,0.0
2023-03-29T02:35:16.617Z,0.0
2023-03-29T02:40:19.546Z,0.0
2023-03-29T02:45:16.498Z,0.0
2023-03-29T02:50:16.585Z,0.0
2023-03-29T02:55:19.594Z,0.0
2023-03-29T03:00:16.678Z,0.0
2023-03-29T03:05:19.619Z,0.0
2023-03-29T03:10:16.610Z,0.0
2023-03-29T03:15:19.609Z,0.0
2023-03-29T03:20:19.600Z,0.0
2023-03-29T03:25:16.402Z,0.0
2023-03-29T03:30:19.617Z,0.0
2023-03-29T03:35:19.627Z,0.0
2023-03-29T03:40:16.651Z,0.0
2023-03-29T03:45:19.654Z,0.0
2023-03-29T03:50:16.652Z,0.0
2023-03-29T03:55:19.646Z,0.0
2023-03-29T04:00:18.893Z,0.0
2023-03-29T04:05:15.872Z,0.0
2023-03-29T04:10:18.839Z,0.0
2023-03-29T04:15:15.788Z,0.0
2023-03-29T04:20:15.905Z,0.0
2023-03-29T04:25:18.897Z,0.0
2023-03-29T04:30:15.908Z,0.0
2023-03-29T04:35:15.937Z,0.0
2023-03-29T04:40:18.907Z,0.0
2023-03-29T04:45:18.936Z,0.0
2023-03-29T04:50:18.873Z,0.0
2023-03-29T04:55:15.784Z,0.0
2023-03-29T05:00:15.977Z,0.0
2023-03-29T05:05:18.872Z,0.0
2023-03-29T05:10:18.854Z,0.0
2023-03-29T05:15:18.933Z,0.0
2023-03-29T05:20:18.860Z,0.0
2023-03-29T05:25:18.856Z,0.0
2023-03-29T05:30:15.940Z,0.0
2023-03-29T05:35:15.765Z,0.0
2023-03-29T05:40:18.936Z,0.0
2023-03-29T05:45:15.936Z,0.0
2023-03-29T05:50:15.932Z,0.0
2023-03-29T05:55:18.876Z,0.0
2023-03-29T06:00:18.927Z,0.0
2023-03-29T06:05:15.911Z,0.0
2023-03-29T06:10:15.774Z,0.0
2023-03-29T06:15:15.966Z,0.0
2023-03-29T06:20:16.017Z,0.0
2023-03-29T06:25:18.950Z,0.0
2023-03-29T06:30:18.986Z,0.0
2023-03-29T06:35:18.930Z,0.0
2023-03-29T06:40:15.959Z,0.0
2023-03-29T06:45:16.017Z,0.0
2023-03-29T06:50:15.778Z,0.0
2023-03-29T06:55:15.982Z,0.0
2023-03-29T07:00:18.913Z,0.0
2023-03-29T07:05:16.016Z,0.0
2023-03-29T07:10:15.972Z,0.0
2023-03-29T07:15:18.982Z,0.0
2023-03-29T07:20:18.991Z,0.0
2023-03-29T07:25:15.954Z,0.0
2023-03-29T07:30:15.977Z,0.0
2023-03-29T07:35:16.071Z,0.0
2023-03-29T07:40:18.940Z,0.0
2023-03-29T07:45:18.973Z,0.0
2023-03-29T07:50:16.044Z,0.0
2023-03-29T07:55:18.966Z,0.0
2023-03-29T08:00:19.102Z,0.0
2023-03-29T08:05:26.043Z,0.0
2023-03-29T08:10:15.974Z,0.0
2023-03-29T08:15:18.995Z,0.0
2023-03-29T08:20:16.043Z,0.0
2023-03-29T08:25:19.041Z,0.0
2023-03-29T08:30:16.055Z,0.0
2023-03-29T08:35:19.012Z,0.0
2023-03-29T08:40:19.064Z,0.0
2023-03-29T08:45:18.982Z,0.0
2023-03-29T08:50:19.216Z,0.0
2023-03-29T08:55:19.010Z,0.0
2023-03-29T09:00:16.070Z,0.0
2023-03-29T09:05:18.974Z,0.0
2023-03-29T09:10:16.027Z,0.0
2023-03-29T09:15:19.003Z,0.0
2023-03-29T09:20:19.081Z,0.0
2023-03-29T09:25:16.092Z,0.0
2023-03-29T09:30:16.012Z,0.0
2023-03-29T09:35:18.978Z,0.0
2023-03-29T09:40:16.045Z,0.0
2023-03-29T09:45:16.076Z,0.0
2023-03-29T09:50:30.252Z,0.0
2023-03-29T09:55:19.085Z,0.0
2023-03-29T10:00:16.110Z,0.0
2023-03-29T10:05:19.074Z,0.0
2023-03-29T10:10:19.029Z,0.0
2023-03-29T10:15:29.348Z,0.0
2023-03-29T10:20:15.914Z,0.0
2023-03-29T10:25:16.087Z,0.0
2023-03-29T10:30:19.040Z,0.0
2023-03-29T10:35:19.033Z,0.0
2023-03-29T10:40:19.067Z,0.0
2023-03-29T10:45:19.087Z,0.0
2023-03-29T10:50:19.062Z,0.0
2023-03-29T10:55:19.069Z,0.0
2023-03-29T11:00:19.103Z,0.0
2023-03-29T11:05:19.023Z,0.0
2023-03-29T11:10:16.183Z,0.0
2023-03-29T11:15:19.117Z,0.0
2023-03-29T11:20:19.143Z,0.0
2023-03-29T11:25:16.116Z,0.0
2023-03-29T11:30:19.189Z,0.0
2023-03-29T11:35:19.035Z,0.0
2023-03-29T11:40:19.049Z,0.0
2023-03-29T11:45:16.188Z,0.0
2023-03-29T11:50:19.151Z,0.0
2023-03-29T11:55:16.104Z,0.0
2023-03-29T12:00:16.083Z,1.2
2023-03-29T12:05:19.133Z,1.5
2023-03-29T12:10:19.102Z,1.5
2023-03-29T12:15:19.121Z,1.5
2023-03-29T12:20:16.134Z,1.6
2023-03-29T12:25:18.426Z,1.7
2023-03-29T12:30:19.144Z,1.7
2023-03-29T12:35:16.138Z,1.7
2023-03-29T12:40:19.088Z,1.7
2023-03-29T12:45:19.174Z,1.8
2023-03-29T12:50:19.126Z,1.8
2023-03-29T12:55:19.142Z,1.9
2023-03-29T13:00:19.113Z,1.9
2023-03-29T13:05:19.155Z,2.0
2023-03-29T13:10:19.161Z,2.0
2023-03-29T13:15:16.152Z,2.1
2023-03-29T13:20:19.161Z,2.1
2023-03-29T13:25:19.192Z,2.2
2023-03-29T13:30:16.133Z,2.3
2023-03-29T13:35:16.232Z,2.3
2023-03-29T13:40:19.141Z,2.4
2023-03-29T13:45:19.127Z,2.5
2023-03-29T13:50:16.156Z,2.6
2023-03-29T13:55:19.160Z,2.6
2023-03-29T14:00:19.965Z,2.7
2023-03-29T14:05:19.110Z,2.9
2023-03-29T14:10:19.211Z,2.9
2023-03-29T14:15:19.145Z,2.9
2023-03-29T14:20:16.211Z,3.0
2023-03-29T14:25:19.231Z,3.1
2023-03-29T14:30:19.125Z,3.2
2023-03-29T14:35:16.168Z,3.3
2023-03-29T14:40:16.281Z,3.4
2023-03-29T14:45:19.185Z,3.4
2023-03-29T14:50:16.030Z,3.5
2023-03-29T14:55:16.218Z,3.6
2023-03-29T15:00:16.262Z,3.8
2023-03-29T15:05:16.309Z,3.8
2023-03-29T15:10:16.305Z,3.9
2023-03-29T15:15:19.223Z,4.0
2023-03-29T15:20:16.221Z,4.0
2023-03-29T15:25:19.179Z,4.1
2023-03-29T15:30:19.200Z,4.1
2023-03-29T15:35:19.165Z,4.3
2023-03-29T15:40:16.411Z,4.3
2023-03-29T15:45:19.281Z,4.4
2023-03-29T15:50:19.195Z,4.4
2023-03-29T15:55:19.166Z,4.5
2023-03-29T16:00:16.275Z,4.6
2023-03-29T16:05:19.290Z,4.6
2023-03-29T16:10:19.254Z,4.7
2023-03-29T16:15:19.158Z,4.7
2023-03-29T16:20:19.246Z,4.7
2023-03-29T16:25:16.234Z,4.7
2023-03-29T16:30:16.206Z,4.8
2023-03-29T16:35:16.230Z,4.8
2023-03-29T16:40:16.305Z,4.7
2023-03-29T16:45:16.233Z,4.8
2023-03-29T16:50:19.261Z,4.9
2023-03-29T16:55:16.246Z,4.8
2023-03-29T17:00:16.267Z,4.8
2023-03-29T17:05:19.241Z,4.8
2023-03-29T17:10:19.438Z,4.8
2023-03-29T17:15:19.202Z,4.7
2023-03-29T17:20:19.299Z,4.7
2023-03-29T17:25:19.307Z,4.6
2023-03-29T17:30:19.226Z,4.6
2023-03-29T17:35:16.338Z,4.5
2023-03-29T17:40:16.267Z,4.2
2023-03-29T17:45:19.257Z,4.0
2023-03-29T17:50:16.277Z,3.9
2023-03-29T17:55:19.278Z,3.7
2023-03-29T18:00:16.336Z,4.0
2023-03-29T18:05:16.224Z,3.8
2023-03-29T18:10:19.270Z,3.8
2023-03-29T18:15:19.215Z,3.0
2023-03-29T18:20:16.282Z,2.9
2023-03-29T18:25:19.272Z,2.8
2023-03-29T18:30:19.277Z,3.0
2023-03-29T18:35:19.268Z,3.1
2023-03-29T18:40:19.303Z,3.1
2023-03-29T18:45:19.383Z,3.0
2023-03-29T18:50:16.351Z,2.9
2023-03-29T18:55:16.291Z,2.7
2023-03-29T19:00:16.406Z,2.8
2023-03-29T19:05:16.339Z,2.7
2023-03-29T19:10:16.312Z,2.7
2023-03-29T19:15:16.335Z,2.4
2023-03-29T19:20:16.332Z,2.4
2023-03-29T19:25:16.356Z,2.4
2023-03-29T19:30:19.342Z,2.3
2023-03-29T19:35:16.372Z,2.3
2023-03-29T19:40:16.336Z,2.4
2023-03-29T19:45:16.341Z,2.2
2023-03-29T19:50:16.342Z,2.4
2023-03-29T19:55:16.346Z,2.1
2023-03-29T20:00:16.303Z,2.2
2023-03-29T20:05:16.185Z,2.1
2023-03-29T20:10:19.378Z,2.1
2023-03-29T20:15:19.312Z,2.1
2023-03-29T20:20:16.360Z,2.1
2023-03-29T20:25:16.401Z,2.0
2023-03-29T20:30:16.354Z,1.9
2023-03-29T20:35:16.383Z,1.7
2023-03-29T20:40:16.388Z,1.7
2023-03-29T20:45:19.796Z,1.7
2023-03-29T20:50:16.367Z,1.7
2023-03-29T20:55:19.370Z,1.7
2023-03-29T21:00:19.397Z,1.7
2023-03-29T21:05:19.317Z,1.2
2023-03-29T21:10:16.372Z,1.5
2023-03-29T21:15:16.455Z,1.5
2023-03-29T21:20:16.403Z,1.5
2023-03-29T21:25:16.361Z,1.4
2023-03-29T21:30:16.385Z,1.4
2023-03-29T21:35:16.544Z,1.3
2023-03-29T21:40:19.400Z,0.3
2023-03-29T21:45:19.385Z,0.0
2023-03-29T21:50:19.402Z,1.4
2023-03-29T21:55:19.408Z,1.4
2023-03-29T22:00:19.465Z,0.3
2023-03-29T22:05:16.434Z,0.9
2023-03-29T22:10:19.463Z,0.5
2023-03-29T22:15:19.356Z,1.3
2023-03-29T22:20:19.386Z,1.0
2023-03-29T22:25:19.421Z,0.0
2023-03-29T22:30:19.398Z,0.0
2023-03-29T22:35:16.397Z,0.0
2023-03-29T22:40:19.522Z,0.0
2023-03-29T22:45:19.409Z,0.0
2023-03-29T22:50:19.363Z,0.0
2023-03-29T22:55:19.438Z,0.0
2023-03-29T23:00:19.365Z,0.0
2023-03-29T23:05:19.453Z,0.0
2023-03-29T23:10:19.407Z,0.0
2023-03-29T23:15:19.388Z,0.0
2023-03-29T23:20:16.250Z,0.0
2023-03-29T23:25:19.457Z,0.0
2023-03-29T23:30:19.424Z,0.0
2023-03-29T23:35:16.490Z,0.0
2023-03-29T23:40:16.433Z,0.0
2023-03-29T23:45:16.588Z,0.0
2023-03-29T23:50:19.487Z,0.0
2023-03-29T23:55:19.399Z,0.0
